Tomahawk, WI (54487)

11:56 AM CST on December 07, 2016 (GMT -0600)
Downtown Tomahawk | | Change Station

Elev 1460 ft 45.47 °N, 89.73 °W | Updated 24 seconds ago

Light Snow
Light Snow
18.5 °F
Feels Like 10 °F
N
6.0
Wind Variable Wind from SW
Gusts 12.0 mph

Today
High -- | Low -- °F
--% Chance of Precip.
Yesterday
High -- | Low -- °F
Precip. -- in
Pressure 29.85 in
Visibility 3.0 miles
Clouds Overcast 2100 ft
Windchill 10 °F
Dew Point 13 °F
Humidity 79%
Rainfall 0.00 in
Snow Depth Not available.
7:25 AM 4:15 PM
First Quarter, 54% visible
METAR KTKV 071735Z AUTO 26011G22KT 220V280 3SM -SN OVC021 M08/M12 A2985 RMK AO2 T10831120
Pressure 29.85 in
Visibility 3.0 miles
Clouds Overcast 2100 ft
Windchill 10 °F
Dew Point 13 °F
Humidity 79%
Rainfall 0.00 in
Snow Depth Not available.
7:25 AM 4:15 PM
First Quarter, 54% visible
METAR KTKV 071735Z AUTO 26011G22KT 220V280 3SM -SN OVC021 M08/M12 A2985 RMK AO2 T10831120

10-Day Weather Forecast

Almanac

Astronomy

Dec. 07, 2016 Rise Set
Actual Time
Civil Twilight
Nautical Twilight
Astronomical Twilight
Moon
Length of Visible Light
Length of Day
Tomorrow will be .
, % of the Moon is Illuminated

Today's Extremes

State Highs State Lows

Community

WunderPhotos

Upload Photos

1,956,156 photos uploaded!

WunderBlog® & News

Nearby

Air Quality

  Air Quality AQ Index Pollutant
Not available.

Snow Depth

Station Depth Elevation

Earthquake Activity

City Distance Mag. Time & Date
Minimum magnitude displayed is 2.5.

Coastal Water Temperatures

Place Temperature

Stations

Nearby Weather Stations

Station Location Temp. Windchill Dew Point Humidity Wind Precip. Elev Updated Type
                   

Watches & Warnings

There are currently no watches in effect.